| time (UTC) | temp F | wind direction | speed knots | gust knots | rain 1hr in | rain 24hr in | rain mn in | humidity % | barometer mb |
| 20260507025903 | 60 | 49 | 5.2 | 10.4 | 0.00 | 0.00 | 0.00 | 39 | 1005.7 |
| 20260507025402 | 60 | 56 | 4.3 | 7.8 | 0.00 | 0.00 | 0.00 | 38 | 1005.8 |
| 20260507024403 | 61 | 57 | 4.3 | 8.7 | 0.00 | 0.00 | 0.00 | 37 | 1005.7 |
| 20260507023403 | 62 | 51 | 5.2 | 11.3 | 0.00 | 0.00 | 0.00 | 36 | 1005.6 |
| 20260507022903 | 62 | 0 | 3.5 | 7.0 | 0.00 | 0.00 | 0.00 | 37 | 1005.6 |
| 20260507022403 | 63 | 34 | 6.1 | 8.7 | 0.00 | 0.00 | 0.00 | 37 | 1005.6 |
| 20260507021903 | 63 | 20 | 6.1 | 8.7 | 0.00 | 0.00 | 0.00 | 36 | 1005.4 |
| 20260507021404 | 64 | 22 | 6.1 | 10.4 | 0.00 | 0.00 | 0.00 | 36 | 1005.4 |
| 20260507020903 | 64 | 29 | 6.1 | 8.7 | 0.00 | 0.00 | 0.00 | 36 | 1005.3 |
| 20260507015903 | 64 | 22 | 4.3 | 7.8 | 0.00 | 0.00 | 0.00 | 35 | 1005.3 |
| 20260507015403 | 65 | 11 | 4.3 | 7.8 | 0.00 | 0.00 | 0.00 | 34 | 1005.3 |
| 20260507014903 | 65 | 352 | 6.1 | 10.4 | 0.00 | 0.00 | 0.00 | 34 | 1005.3 |
| 20260507014404 | 65 | 350 | 2.6 | 5.2 | 0.00 | 0.00 | 0.00 | 33 | 1005.2 |
| 20260507012904 | 65 | 14 | 6.1 | 10.4 | 0.00 | 0.00 | 0.00 | 32 | 1005.0 |
| 20260507011904 | 66 | 317 | 6.1 | 10.4 | 0.00 | 0.00 | 0.00 | 31 | 1005.0 |
| 20260507010404 | 66 | 300 | 2.6 | 7.0 | 0.00 | 0.00 | 0.00 | 32 | 1005.0 |
| 20260507005904 | 66 | 300 | 2.6 | 7.0 | 0.00 | 0.00 | 0.00 | 32 | 1005.1 |
| 20260507005403 | 66 | 328 | 1.7 | 10.4 | 0.00 | 0.00 | 0.00 | 30 | 1005.1 |
| 20260507004904 | 65 | 24 | 6.1 | 10.4 | 0.00 | 0.00 | 0.00 | 31 | 1005.0 |
| 20260507004404 | 66 | 37 | 5.2 | 7.8 | 0.00 | 0.00 | 0.00 | 31 | 1005.0 |
| 20260507003903 | 66 | 14 | 3.5 | 6.1 | 0.00 | 0.00 | 0.00 | 31 | 1005.2 |
| 20260507003404 | 66 | 44 | 1.7 | 2.6 | 0.00 | 0.00 | 0.00 | 32 | 1005.1 |
| 20260507002904 | 67 | 47 | 1.7 | 2.6 | 0.00 | 0.00 | 0.00 | 30 | 1004.9 |
| 20260507002404 | 67 | 34 | 2.6 | 5.2 | 0.00 | 0.00 | 0.00 | 31 | 1004.8 |
| 20260507001404 | 67 | 55 | 1.7 | 5.2 | 0.00 | 0.00 | 0.00 | 30 | 1004.6 |
| 20260507000904 | 67 | 46 | 0.9 | 4.3 | 0.00 | 0.00 | 0.00 | 30 | 1004.6 |
| 20260507000405 | 67 | 50 | 2.6 | 7.0 | 0.00 | 0.00 | 0.00 | 32 | 1004.6 |
| 20260506235403 | 67 | 46 | 2.6 | 5.2 | 0.00 | 0.00 | 0.00 | 30 | 1004.7 |
| 20260506234904 | 67 | 14 | 4.3 | 7.0 | 0.00 | 0.00 | 0.00 | 30 | 1004.7 |
| 20260506234404 | 67 | 7 | 3.5 | 7.8 | 0.00 | 0.00 | 0.00 | 30 | 1004.7 |
| 20260506233904 | 67 | 50 | 3.5 | 5.2 | 0.00 | 0.00 | 0.00 | 30 | 1004.6 |
| 20260506233404 | 67 | 44 | 4.3 | 7.0 | 0.00 | 0.00 | 0.00 | 30 | 1004.6 |
| 20260506232904 | 67 | 57 | 0.9 | 8.7 | 0.00 | 0.00 | 0.00 | 31 | 1004.6 |
| 20260506232403 | 67 | 71 | 4.3 | 7.0 | 0.00 | 0.00 | 0.00 | 29 | 1004.6 |
| 20260506231904 | 67 | 65 | 2.6 | 6.1 | 0.00 | 0.00 | 0.00 | 30 | 1004.6 |
| 20260506231404 | 67 | 65 | 3.5 | 7.8 | 0.00 | 0.00 | 0.00 | 30 | 1004.7 |
| 20260506230904 | 67 | 52 | 2.6 | 8.7 | 0.00 | 0.00 | 0.00 | 31 | 1004.8 |
| 20260506230404 | 67 | 41 | 6.1 | 10.4 | 0.00 | 0.00 | 0.00 | 29 | 1004.9 |
| 20260506225904 | 67 | 37 | 5.2 | 10.4 | 0.00 | 0.00 | 0.00 | 29 | 1005.0 |
| 20260506225404 | 68 | 38 | 5.2 | 10.4 | 0.00 | 0.00 | 0.00 | 29 | 1004.9 |
| 20260506224904 | 68 | 49 | 5.2 | 10.4 | 0.00 | 0.00 | 0.00 | 29 | 1004.9 |
| 20260506224404 | 69 | 54 | 4.3 | 11.3 | 0.00 | 0.00 | 0.00 | 29 | 1005.0 |
| 20260506223904 | 70 | 47 | 5.2 | 11.3 | 0.00 | 0.00 | 0.00 | 27 | 1005.0 |
| 20260506223404 | 71 | 51 | 4.3 | 11.3 | 0.00 | 0.00 | 0.00 | 28 | 1004.9 |
| 20260506222904 | 71 | 68 | 3.5 | 7.8 | 0.00 | 0.00 | 0.00 | 29 | 1004.9 |
| 20260506222404 | 70 | 98 | 3.5 | 10.4 | 0.00 | 0.00 | 0.00 | 27 | 1005.0 |
| 20260506221904 | 69 | 51 | 4.3 | 10.4 | 0.00 | 0.00 | 0.00 | 30 | 1005.1 |
| 20260506221404 | 69 | 99 | 2.6 | 10.4 | 0.00 | 0.00 | 0.00 | 29 | 1005.2 |
| 20260506220901 | 69 | 44 | 8.7 | 15.6 | 0.00 | 0.00 | 0.00 | 28 | 1005.4 |
| 20260506220400 | 70 | 20 | 9.6 | 14.8 | 0.00 | 0.00 | 0.00 | 26 | 1005.3 |
| 20260506215900 | 72 | 306 | 8.7 | 19.1 | 0.00 | 0.00 | 0.00 | 24 | 1004.8 |
| 20260506215400 | 72 | 312 | 2.6 | 10.4 | 0.00 | 0.00 | 0.00 | 25 | 1005.5 |
| 20260506214900 | 72 | 257 | 4.3 | 15.6 | 0.00 | 0.00 | 0.00 | 26 | 1005.5 |
| 20260506214400 | 72 | 51 | 3.5 | 7.8 | 0.00 | 0.00 | 0.00 | 29 | 1005.6 |
| 20260506213900 | 72 | 144 | 4.3 | 7.8 | 0.00 | 0.00 | 0.00 | 27 | 1005.6 |
| 20260506213400 | 72 | 162 | 2.6 | 15.6 | 0.00 | 0.00 | 0.00 | 24 | 1005.7 |
| 20260506211900 | 71 | 278 | 4.3 | 15.6 | 0.00 | 0.00 | 0.00 | 26 | 1005.9 |
| 20260506211400 | 71 | 256 | 6.1 | 10.4 | 0.00 | 0.00 | 0.00 | 26 | 1006.1 |
| 20260506210901 | 70 | 349 | 2.6 | 7.0 | 0.00 | 0.00 | 0.00 | 30 | 1006.2 |
| 20260506210401 | 69 | 349 | 4.3 | 7.8 | 0.00 | 0.00 | 0.00 | 27 | 1006.3 |
| 20260506205900 | 69 | 336 | 3.5 | 5.2 | 0.00 | 0.00 | 0.00 | 30 | 1006.4 |
| 20260506205400 | 68 | 228 | 1.7 | 2.6 | 0.00 | 0.00 | 0.00 | 28 | 1006.4 |
| 20260506204400 | 68 | 68 | 4.3 | 7.0 | 0.00 | 0.00 | 0.00 | 29 | 1006.3 |
| 20260506203901 | 68 | 68 | 2.6 | 8.7 | 0.00 | 0.00 | 0.00 | 28 | 1006.5 |
| 20260506203400 | 69 | 125 | 2.6 | 10.4 | 0.00 | 0.00 | 0.00 | 29 | 1006.6 |
| 20260506202400 | 68 | 122 | 2.6 | 6.1 | 0.00 | 0.00 | 0.00 | 29 | 1006.8 |
| 20260506201400 | 68 | 28 | 1.7 | 4.3 | 0.00 | 0.00 | 0.00 | 27 | 1007.0 |
| 20260506200901 | 69 | 93 | 1.7 | 5.2 | 0.00 | 0.00 | 0.00 | 29 | 1007.1 |
| 20260506200402 | 69 | 130 | 3.5 | 7.0 | 0.00 | 0.00 | 0.00 | 28 | 1007.2 |
| 20260506195900 | 69 | 75 | 1.7 | 7.0 | 0.00 | 0.00 | 0.00 | 30 | 1007.3 |
| 20260506194900 | 68 | 90 | 4.3 | 7.8 | 0.00 | 0.00 | 0.00 | 29 | 1007.3 |
| 20260506193900 | 68 | 76 | 5.2 | 10.4 | 0.00 | 0.00 | 0.00 | 29 | 1007.4 |
| 20260506192900 | 68 | 51 | 3.5 | 6.1 | 0.00 | 0.00 | 0.00 | 31 | 1007.6 |
| 20260506191900 | 68 | 30 | 3.5 | 7.0 | 0.00 | 0.00 | 0.00 | 30 | 1007.7 |
| 20260506191400 | 68 | 55 | 2.6 | 6.1 | 0.00 | 0.00 | 0.00 | 29 | 1008.0 |
| 20260506190901 | 68 | 42 | 2.6 | 4.3 | 0.00 | 0.00 | 0.00 | 31 | 1008.0 |
| 20260506190401 | 67 | 324 | 2.6 | 5.2 | 0.00 | 0.00 | 0.00 | 31 | 1008.1 |
| 20260506185900 | 67 | 291 | 1.7 | 4.3 | 0.00 | 0.00 | 0.00 | 30 | 1008.4 |
| 20260506185400 | 67 | 174 | 3.5 | 10.4 | 0.00 | 0.00 | 0.00 | 29 | 1008.4 |
| 20260506184901 | 67 | 84 | 3.5 | 8.7 | 0.00 | 0.00 | 0.00 | 29 | 1008.4 |
| 20260506184401 | 66 | 189 | 2.6 | 5.2 | 0.00 | 0.00 | 0.00 | 32 | 1008.5 |
| 20260506183901 | 66 | 186 | 2.6 | 6.1 | 0.00 | 0.00 | 0.00 | 31 | 1008.6 |
| 20260506182400 | 65 | 122 | 4.3 | 7.8 | 0.00 | 0.00 | 0.00 | 31 | 1008.7 |
| 20260506181901 | 65 | 89 | 2.6 | 8.7 | 0.00 | 0.00 | 0.00 | 32 | 1008.7 |
| 20260506181401 | 65 | 145 | 3.5 | 11.3 | 0.00 | 0.00 | 0.00 | 31 | 1008.8 |
| 20260506180901 | 64 | 254 | 2.6 | 4.3 | 0.00 | 0.00 | 0.00 | 30 | 1008.9 |
| 20260506175900 | 64 | 97 | 2.6 | 11.3 | 0.00 | 0.00 | 0.00 | 31 | 1009.1 |
| 20260506175400 | 64 | 149 | 5.2 | 8.7 | 0.00 | 0.00 | 0.00 | 31 | 1009.2 |
| 20260506174901 | 64 | 120 | 3.5 | 7.0 | 0.00 | 0.00 | 0.00 | 31 | 1009.3 |
| 20260506174401 | 64 | 167 | 2.6 | 10.4 | 0.00 | 0.00 | 0.00 | 31 | 1009.5 |
| 20260506173901 | 63 | 147 | 0.9 | 2.6 | 0.00 | 0.00 | 0.00 | 32 | 1009.5 |
| 20260506172901 | 62 | 161 | 2.6 | 5.2 | 0.00 | 0.00 | 0.00 | 36 | 1009.8 |
| 20260506172400 | 61 | 105 | 1.7 | 4.3 | 0.00 | 0.00 | 0.00 | 36 | 1009.8 |
| 20260506171900 | 61 | 176 | 2.6 | 5.2 | 0.00 | 0.00 | 0.00 | 36 | 1010.0 |
| 20260506171400 | 61 | 113 | 2.6 | 7.0 | 0.00 | 0.00 | 0.00 | 36 | 1010.0 |
| 20260506170901 | 60 | 132 | 3.5 | 6.1 | 0.00 | 0.00 | 0.00 | 36 | 1010.2 |
| 20260506170401 | 60 | 180 | 2.6 | 5.2 | 0.00 | 0.00 | 0.00 | 38 | 1010.4 |
| 20260506165900 | 59 | 130 | 2.6 | 4.3 | 0.00 | 0.00 | 0.00 | 38 | 1010.5 |
| 20260506165401 | 58 | 131 | 1.7 | 5.2 | 0.00 | 0.00 | 0.00 | 39 | 1010.5 |
| 20260506164900 | 58 | 152 | 2.6 | 4.3 | 0.00 | 0.00 | 0.00 | 38 | 1010.6 |
| 20260506164400 | 57 | 117 | 3.5 | 6.1 | 0.00 | 0.00 | 0.00 | 40 | 1010.7 |
| 20260506163901 | 57 | 144 | 2.6 | 5.2 | 0.00 | 0.00 | 0.00 | 40 | 1010.8 |
| 20260506163401 | 56 | 0 | 2.6 | 5.2 | 0.00 | 0.00 | 0.00 | 40 | 1010.9 |
| 20260506162901 | 56 | 0 | 1.7 | 4.3 | 0.00 | 0.00 | 0.00 | 40 | 1011.0 |
| 20260506162401 | 55 | 52 | 2.6 | 5.2 | 0.00 | 0.00 | 0.00 | 42 | 1011.1 |
| 20260506161901 | 55 | 0 | 3.5 | 7.0 | 0.00 | 0.00 | 0.00 | 39 | 1011.2 |
| 20260506161401 | 55 | 147 | 2.6 | 4.3 | 0.00 | 0.00 | 0.00 | 41 | 1011.2 |
| 20260506160901 | 54 | 177 | 2.6 | 4.3 | 0.00 | 0.00 | 0.00 | 43 | 1011.3 |
| 20260506160401 | 53 | 167 | 2.6 | 6.1 | 0.00 | 0.00 | 0.00 | 41 | 1011.4 |
| 20260506155401 | 52 | 18 | 1.7 | 4.3 | 0.00 | 0.00 | 0.00 | 46 | 1011.6 |
| 20260506154901 | 51 | 0 | 3.5 | 5.2 | 0.00 | 0.00 | 0.00 | 46 | 1011.7 |
| 20260506154401 | 50 | 357 | 3.5 | 5.2 | 0.00 | 0.00 | 0.00 | 46 | 1011.7 |
| 20260506153902 | 49 | 357 | 1.7 | 2.6 | 0.00 | 0.00 | 0.00 | 49 | 1011.8 |
| 20260506153401 | 48 | 347 | 0.9 | 2.6 | 0.00 | 0.00 | 0.00 | 51 | 1011.8 |
| 20260506152901 | 47 | 0 | 1.7 | 4.3 | 0.00 | 0.00 | 0.00 | 50 | 1011.9 |
| 20260506152402 | 47 | 0 | 1.7 | 2.6 | 0.00 | 0.00 | 0.00 | 51 | 1012.0 |
| 20260506151902 | 46 | 338 | 1.7 | 2.6 | 0.00 | 0.00 | 0.00 | 52 | 1012.0 |
| 20260506151401 | 45 | 0 | 0.9 | 2.6 | 0.00 | 0.00 | 0.00 | 53 | 1012.1 |
| 20260506150901 | 44 | 0 | 0.9 | 2.6 | 0.00 | 0.00 | 0.00 | 54 | 1012.2 |
| 20260506150402 | 44 | 0 | 1.7 | 4.3 | 0.00 | 0.00 | 0.00 | 55 | 1012.3 |
| 20260506145402 | 43 | 0 | 1.7 | 2.6 | 0.00 | 0.00 | 0.00 | 55 | 1012.5 |
| 20260506144901 | 42 | 0 | 0.9 | 2.6 | 0.00 | 0.00 | 0.00 | 57 | 1012.5 |
| 20260506144401 | 42 | 0 | 1.7 | 2.6 | 0.00 | 0.00 | 0.00 | 57 | 1012.5 |
| 20260506143901 | 42 | 0 | 1.7 | 2.6 | 0.00 | 0.00 | 0.00 | 57 | 1012.6 |
| 20260506142901 | 41 | 0 | 1.7 | 2.6 | 0.00 | 0.00 | 0.00 | 59 | 1012.7 |
| 20260506142401 | 40 | 0 | 0.9 | 2.6 | 0.00 | 0.00 | 0.00 | 61 | 1012.7 |
| 20260506141901 | 39 | 0 | 1.7 | 2.6 | 0.00 | 0.00 | 0.00 | 62 | 1012.8 |
| 20260506141401 | 39 | 0 | 1.7 | 2.6 | 0.00 | 0.00 | 0.00 | 61 | 1012.8 |
| 20260506140402 | 37 | 0 | 2.6 | 2.6 | 0.00 | 0.00 | 0.00 | 63 | 1013.0 |
| 20260506135901 | 37 | 0 | 2.6 | 2.6 | 0.00 | 0.00 | 0.00 | 64 | 1013.0 |
| 20260506135401 | 36 | 293 | 0.9 | 2.6 | 0.00 | 0.00 | 0.00 | 67 | 1013.0 |
| 20260506134902 | 35 | 294 | 0.9 | 2.6 | 0.00 | 0.00 | 0.00 | 68 | 1013.0 |
| 20260506134401 | 34 | 263 | 1.7 | 2.6 | 0.00 | 0.00 | 0.00 | 68 | 1013.0 |
| 20260506133901 | 33 | 263 | 0.9 | 1.7 | 0.00 | 0.00 | 0.00 | 69 | 1013.0 |
| 20260506133401 | 33 | 0 | 1.7 | 2.6 | 0.00 | 0.00 | 0.00 | 70 | 1013.1 |
| 20260506131401 | 31 | 0 | 1.7 | 2.6 | 0.00 | 0.00 | 0.00 | 68 | 1013.2 |
| 20260506125901 | 30 | 206 | 0.9 | 1.7 | 0.00 | 0.00 | 0.00 | 70 | 1013.2 |
| 20260506124901 | 30 | 206 | 0.0 | 1.7 | 0.00 | 0.00 | 0.00 | 69 | 1013.1 |
| 20260506124402 | 30 | 206 | 0.9 | 1.7 | 0.00 | 0.00 | 0.00 | 68 | 1013.2 |
| 20260506123901 | 31 | 206 | 0.9 | 1.7 | 0.00 | 0.00 | 0.00 | 68 | 1013.3 |
| 20260506123401 | 31 | 206 | 0.9 | 1.7 | 0.00 | 0.00 | 0.00 | 68 | 1013.2 |
| 20260506122902 | 31 | 206 | 0.9 | 1.7 | 0.00 | 0.00 | 0.00 | 68 | 1013.2 |
| 20260506122401 | 31 | 206 | 0.9 | 1.7 | 0.00 | 0.00 | 0.00 | 67 | 1013.2 |
| 20260506121902 | 31 | 206 | 0.9 | 1.7 | 0.00 | 0.00 | 0.00 | 66 | 1013.3 |
| 20260506121402 | 31 | 206 | 0.9 | 2.6 | 0.00 | 0.00 | 0.00 | 66 | 1013.2 |
| 20260506120901 | 31 | 206 | 0.9 | 1.7 | 0.00 | 0.00 | 0.00 | 66 | 1013.3 |
| 20260506120402 | 31 | 206 | 0.9 | 1.7 | 0.00 | 0.00 | 0.00 | 65 | 1013.3 |
| 20260506115903 | 31 | 206 | 0.9 | 1.7 | 0.00 | 0.00 | 0.00 | 67 | 1013.4 |
| 20260506115401 | 31 | 206 | 0.9 | 2.6 | 0.00 | 0.00 | 0.00 | 68 | 1013.5 |
| 20260506114902 | 31 | 206 | 0.0 | 0.0 | 0.00 | 0.00 | 0.00 | 66 | 1013.6 |
| 20260506114401 | 31 | 206 | 0.0 | 0.0 | 0.00 | 0.00 | 0.00 | 66 | 1013.6 |
| 20260506113902 | 31 | 206 | 0.0 | 0.0 | 0.00 | 0.00 | 0.00 | 65 | 1013.7 |
| 20260506113402 | 31 | 206 | 0.0 | 0.0 | 0.00 | 0.00 | 0.00 | 65 | 1013.8 |
| 20260506112902 | 31 | 206 | 0.0 | 0.9 | 0.00 | 0.00 | 0.00 | 64 | 1013.9 |
| 20260506112402 | 31 | 206 | 0.9 | 1.7 | 0.00 | 0.00 | 0.00 | 64 | 1013.9 |
| 20260506111902 | 31 | 206 | 0.9 | 1.7 | 0.00 | 0.00 | 0.00 | 63 | 1014.0 |
| 20260506111402 | 31 | 206 | 0.9 | 1.7 | 0.00 | 0.00 | 0.00 | 63 | 1014.0 |
| 20260506110902 | 31 | 206 | 0.0 | 0.9 | 0.00 | 0.00 | 0.00 | 63 | 1014.1 |
| 20260506110401 | 31 | 206 | 0.9 | 2.6 | 0.00 | 0.00 | 0.00 | 63 | 1014.2 |
| 20260506105402 | 31 | 205 | 2.6 | 2.6 | 0.00 | 0.00 | 0.00 | 63 | 1014.1 |
| 20260506104902 | 31 | 204 | 1.7 | 2.6 | 0.00 | 0.00 | 0.00 | 63 | 1014.2 |
| 20260506104402 | 30 | 201 | 2.6 | 2.6 | 0.00 | 0.00 | 0.00 | 63 | 1014.3 |
| 20260506103902 | 30 | 184 | 1.7 | 2.6 | 0.00 | 0.00 | 0.00 | 62 | 1014.5 |
| 20260506103402 | 30 | 157 | 0.9 | 2.6 | 0.00 | 0.00 | 0.00 | 62 | 1014.5 |
| 20260506102902 | 30 | 157 | 0.9 | 1.7 | 0.00 | 0.00 | 0.00 | 62 | 1014.5 |
| 20260506101902 | 31 | 157 | 0.0 | 1.7 | 0.00 | 0.00 | 0.00 | 61 | 1014.7 |
| 20260506101402 | 31 | 157 | 0.9 | 1.7 | 0.00 | 0.00 | 0.00 | 61 | 1014.8 |
| 20260506100902 | 31 | 157 | 0.0 | 0.9 | 0.00 | 0.00 | 0.00 | 61 | 1014.8 |
| 20260506095902 | 31 | 132 | 0.9 | 2.6 | 0.00 | 0.00 | 0.00 | 60 | 1014.9 |
| 20260506095402 | 31 | 132 | 0.0 | 1.7 | 0.00 | 0.00 | 0.00 | 60 | 1015.1 |
| 20260506094902 | 31 | 132 | 0.9 | 2.6 | 0.00 | 0.00 | 0.00 | 60 | 1015.1 |
| 20260506093902 | 32 | 134 | 0.9 | 2.6 | 0.00 | 0.00 | 0.00 | 59 | 1015.3 |
| 20260506093402 | 32 | 112 | 1.7 | 2.6 | 0.00 | 0.00 | 0.00 | 59 | 1015.4 |
| 20260506092901 | 32 | 158 | 1.7 | 4.3 | 0.00 | 0.00 | 0.00 | 59 | 1015.5 |
| 20260506092402 | 32 | 140 | 0.9 | 2.6 | 0.00 | 0.00 | 0.00 | 59 | 1015.6 |
| 20260506091902 | 32 | 139 | 0.9 | 2.6 | 0.00 | 0.00 | 0.00 | 58 | 1015.6 |
| 20260506091402 | 32 | 150 | 1.7 | 4.3 | 0.00 | 0.00 | 0.00 | 58 | 1015.6 |
| 20260506090902 | 32 | 165 | 1.7 | 4.3 | 0.00 | 0.00 | 0.00 | 58 | 1015.7 |
| 20260506090402 | 33 | 140 | 1.7 | 4.3 | 0.00 | 0.00 | 0.00 | 58 | 1015.7 |
| 20260506085902 | 33 | 155 | 1.7 | 4.3 | 0.00 | 0.00 | 0.00 | 58 | 1015.7 |
| 20260506085403 | 33 | 137 | 1.7 | 4.3 | 0.00 | 0.00 | 0.00 | 57 | 1015.8 |
| 20260506084902 | 33 | 136 | 1.7 | 5.2 | 0.00 | 0.00 | 0.00 | 57 | 1015.9 |
| 20260506084402 | 33 | 146 | 1.7 | 6.1 | 0.00 | 0.00 | 0.00 | 57 | 1016.0 |
| 20260506083902 | 33 | 163 | 3.5 | 7.8 | 0.00 | 0.00 | 0.00 | 57 | 1016.0 |
| 20260506083402 | 33 | 154 | 4.3 | 7.0 | 0.00 | 0.00 | 0.00 | 57 | 1016.1 |
| 20260506082902 | 33 | 146 | 2.6 | 11.3 | 0.00 | 0.00 | 0.00 | 57 | 1016.2 |
| 20260506082403 | 33 | 149 | 2.6 | 6.1 | 0.00 | 0.00 | 0.00 | 57 | 1016.1 |
| 20260506081902 | 33 | 121 | 2.6 | 6.1 | 0.00 | 0.00 | 0.00 | 57 | 1016.3 |
| 20260506080402 | 34 | 125 | 1.7 | 10.4 | 0.00 | 0.00 | 0.00 | 55 | 1016.3 |
| 20260506073402 | 33 | 121 | 2.6 | 6.1 | 0.00 | 0.00 | 0.00 | 56 | 1016.6 |
| 20260506072903 | 33 | 149 | 4.3 | 12.2 | 0.00 | 0.00 | 0.00 | 56 | 1016.5 |
| 20260506072403 | 33 | 134 | 2.6 | 4.3 | 0.00 | 0.00 | 0.00 | 56 | 1016.7 |
| 20260506071902 | 33 | 121 | 1.7 | 5.2 | 0.00 | 0.00 | 0.00 | 56 | 1016.6 |
| 20260506071403 | 33 | 116 | 2.6 | 5.2 | 0.00 | 0.00 | 0.00 | 56 | 1016.8 |
| 20260506070402 | 34 | 154 | 1.7 | 4.3 | 0.00 | 0.00 | 0.00 | 55 | 1016.9 |
| 20260506062403 | 34 | 135 | 1.7 | 5.2 | 0.00 | 0.00 | 0.00 | 54 | 1017.5 |
| 20260506061902 | 34 | 123 | 2.6 | 6.1 | 0.00 | 0.00 | 0.00 | 54 | 1017.5 |
| 20260506061403 | 34 | 116 | 1.7 | 2.6 | 0.00 | 0.00 | 0.00 | 54 | 1017.6 |
| 20260506060903 | 34 | 119 | 1.7 | 6.1 | 0.00 | 0.00 | 0.00 | 54 | 1017.7 |
| 20260506060403 | 34 | 136 | 1.7 | 2.6 | 0.00 | 0.00 | 0.00 | 53 | 1017.7 |
| 20260506050903 | 36 | 118 | 1.7 | 2.6 | 0.00 | 0.00 | 0.00 | 50 | 1018.2 |
| 20260506050404 | 36 | 120 | 0.9 | 2.6 | 0.00 | 0.00 | 0.00 | 50 | 1018.2 |
| 20260506044902 | 37 | 124 | 1.7 | 4.3 | 0.00 | 0.00 | 0.00 | 49 | 1018.3 |
| 20260506044403 | 37 | 129 | 0.9 | 2.6 | 0.00 | 0.00 | 0.00 | 49 | 1018.2 |
| 20260506043902 | 38 | 126 | 1.7 | 2.6 | 0.00 | 0.00 | 0.00 | 49 | 1018.3 |
| 20260506043403 | 38 | 118 | 1.7 | 5.2 | 0.00 | 0.00 | 0.00 | 49 | 1018.3 |
| 20260506042904 | 38 | 124 | 1.7 | 2.6 | 0.00 | 0.00 | 0.00 | 49 | 1018.2 |
| 20260506042404 | 38 | 118 | 1.7 | 2.6 | 0.00 | 0.00 | 0.00 | 48 | 1018.3 |
| 20260506041904 | 39 | 132 | 0.9 | 2.6 | 0.00 | 0.00 | 0.00 | 48 | 1018.3 |
| 20260506041404 | 39 | 119 | 1.7 | 4.3 | 0.00 | 0.00 | 0.00 | 47 | 1018.3 |
| 20260506035903 | 40 | 126 | 1.7 | 4.3 | 0.00 | 0.00 | 0.00 | 46 | 1018.3 |
| 20260506035403 | 39 | 128 | 2.6 | 6.1 | 0.00 | 0.00 | 0.00 | 46 | 1018.4 |
| 20260506034903 | 39 | 125 | 1.7 | 2.6 | 0.00 | 0.00 | 0.00 | 46 | 1018.5 |
| 20260506034403 | 39 | 117 | 1.7 | 2.6 | 0.00 | 0.00 | 0.00 | 46 | 1018.5 |
| 20260506033903 | 40 | 65 | 0.9 | 1.7 | 0.00 | 0.00 | 0.00 | 45 | 1018.5 |
| 20260506033403 | 40 | 0 | 0.0 | 2.6 | 0.00 | 0.00 | 0.00 | 44 | 1018.4 |
| 20260506032903 | 40 | 0 | 1.7 | 2.6 | 0.00 | 0.00 | 0.00 | 44 | 1018.3 |
| 20260506032403 | 41 | 0 | 1.7 | 2.6 | 0.00 | 0.00 | 0.00 | 43 | 1018.3 |
| 20260506031903 | 41 | 0 | 0.9 | 2.6 | 0.00 | 0.00 | 0.00 | 43 | 1018.3 |
| 20260506031404 | 41 | 0 | 0.9 | 2.6 | 0.00 | 0.00 | 0.00 | 42 | 1018.2 |
| 20260506030903 | 41 | 0 | 1.7 | 2.6 | 0.00 | 0.00 | 0.00 | 42 | 1018.1 |
| 20260506030403 | 42 | 0 | 0.9 | 2.6 | 0.00 | 0.00 | 0.00 | 41 | 1018.2 |